Time,TemperatureF,DewpointF,PressureIn,WindDirection,WindDirectionDegrees,WindSpeedMPH,WindSpeedGustMPH,Humidity,HourlyPrecipIn,Conditions,Clouds,dailyrainin,SoftwareType,DateUTC
2014-09-20 00:03:00,72.1,68.3,29.75,South,190,9.2,9.2,88,0.00,,SKC,0.00,WeatherDisplay:10.37,2014-09-20 05:03:00,
2014-09-20 00:08:00,72.1,68.3,29.75,SSE,153,10.6,10.6,88,0.00,,SKC,0.00,WeatherDisplay:10.37,2014-09-20 05:08:00,
2014-09-20 00:13:00,72.0,68.2,29.75,SSW,198,11.7,11.7,88,0.00,,SKC,0.00,WeatherDisplay:10.37,2014-09-20 05:13:00,
2014-09-20 00:18:00,72.0,68.2,29.75,SSW,197,8.5,8.5,88,0.00,,SKC,0.00,WeatherDisplay:10.37,2014-09-20 05:18:00,
2014-09-20 00:23:00,72.1,68.3,29.75,SW,222,13.8,13.8,88,0.00,,SKC,0.00,WeatherDisplay:10.37,2014-09-20 05:23:00,
2014-09-20 00:28:00,72.2,68.4,29.74,South,187,13.8,13.8,88,0.00,,SKC,0.00,WeatherDisplay:10.37,2014-09-20 05:28:00,
2014-09-20 00:33:00,72.2,68.4,29.74,SE,139,11.7,11.7,88,0.00,,SKC,0.00,WeatherDisplay:10.37,2014-09-20 05:33:00,
2014-09-20 00:38:00,72.2,68.4,29.74,South,174,15.0,15.0,88,0.00,,SKC,0.00,WeatherDisplay:10.37,2014-09-20 05:38:00,
2014-09-20 00:43:00,72.2,68.4,29.74,SSW,199,15.0,15.0,88,0.00,,SKC,0.00,WeatherDisplay:10.37,2014-09-20 05:43:00,
2014-09-20 00:48:00,72.2,68.4,29.74,SSW,205,14.8,14.8,88,0.00,,SKC,0.00,WeatherDisplay:10.37,2014-09-20 05:48:00,
2014-09-20 00:53:00,72.3,68.5,29.74,SSE,163,17.0,17.0,88,0.00,,SKC,0.00,WeatherDisplay:10.37,2014-09-20 05:53:00,
2014-09-20 00:58:00,72.2,68.4,29.74,SSE,150,4.6,4.6,88,0.00,,SKC,0.00,WeatherDisplay:10.37,2014-09-20 05:58:00,
2014-09-20 01:03:00,72.1,68.3,29.74,SSW,202,5.3,5.3,88,0.00,,SKC,0.00,WeatherDisplay:10.37,2014-09-20 06:03:00,
2014-09-20 01:08:00,72.0,68.6,29.75,SSW,206,6.9,6.9,89,0.00,,SKC,0.00,WeatherDisplay:10.37,2014-09-20 06:08:00,
2014-09-20 01:13:00,72.0,68.6,29.75,SSW,205,7.4,7.4,89,0.00,,SKC,0.00,WeatherDisplay:10.37,2014-09-20 06:13:00,
2014-09-20 01:18:00,72.0,68.2,29.75,SE,139,12.7,12.7,88,0.00,,SKC,0.00,WeatherDisplay:10.37,2014-09-20 06:18:00,
2014-09-20 01:23:00,72.0,68.2,29.74,SSE,147,13.8,13.8,88,0.00,,SKC,0.00,WeatherDisplay:10.37,2014-09-20 06:23:00,
2014-09-20 01:28:00,72.2,68.4,29.74,SE,139,7.4,7.4,88,0.00,,SKC,0.00,WeatherDisplay:10.37,2014-09-20 06:28:00,
2014-09-20 01:33:00,72.2,68.4,29.74,SE,127,10.4,10.4,88,0.00,,SKC,0.00,WeatherDisplay:10.37,2014-09-20 06:33:00,
2014-09-20 01:38:00,72.3,68.5,29.75,South,181,7.4,7.4,88,0.00,,SKC,0.00,WeatherDisplay:10.37,2014-09-20 06:38:00,
2014-09-20 01:43:00,72.4,68.3,29.75,South,180,6.9,6.9,87,0.00,,SKC,0.00,WeatherDisplay:10.37,2014-09-20 06:43:00,
2014-09-20 01:48:00,72.5,68.4,29.75,SSW,200,13.8,13.8,87,0.00,,SKC,0.00,WeatherDisplay:10.37,2014-09-20 06:48:00,
2014-09-20 01:53:00,72.6,68.5,29.76,SSW,206,8.5,8.5,87,0.00,,SKC,0.00,WeatherDisplay:10.37,2014-09-20 06:53:00,
2014-09-20 01:58:00,72.7,68.3,29.76,South,181,8.1,8.1,86,0.00,,SKC,0.00,WeatherDisplay:10.37,2014-09-20 06:58:00,
2014-09-20 02:03:00,72.8,68.4,29.76,South,188,11.7,11.7,86,0.00,,SKC,0.00,WeatherDisplay:10.37,2014-09-20 07:03:00,
2014-09-20 02:08:00,73.0,68.6,29.76,South,184,12.7,12.7,86,0.00,,SKC,0.00,WeatherDisplay:10.37,2014-09-20 07:08:00,
2014-09-20 02:13:00,73.0,68.6,29.77,SSW,205,8.5,8.5,86,0.00,,SKC,0.00,WeatherDisplay:10.37,2014-09-20 07:13:00,
2014-09-20 02:18:00,73.1,68.3,29.77,SW,227,11.7,11.7,85,0.00,,SKC,0.00,WeatherDisplay:10.37,2014-09-20 07:18:00,
2014-09-20 02:23:00,73.0,68.2,29.76,SW,224,18.0,18.0,85,0.00,,SKC,0.00,WeatherDisplay:10.37,2014-09-20 07:23:00,
2014-09-20 02:28:00,73.0,68.2,29.76,SSW,202,11.7,11.7,85,0.00,,SKC,0.00,WeatherDisplay:10.37,2014-09-20 07:28:00,
2014-09-20 02:33:00,72.9,68.1,29.76,SSW,199,15.9,15.9,85,0.00,,SKC,0.00,WeatherDisplay:10.37,2014-09-20 07:33:00,
2014-09-20 02:38:00,72.8,68.0,29.75,SSW,195,8.5,8.5,85,0.00,,SKC,0.00,WeatherDisplay:10.37,2014-09-20 07:38:00,
2014-09-20 02:43:00,72.9,68.1,29.76,SW,216,17.3,17.3,85,0.00,,SKC,0.00,WeatherDisplay:10.37,2014-09-20 07:43:00,
2014-09-20 02:48:00,72.9,68.1,29.76,WSW,252,8.5,8.5,85,0.00,,SKC,0.00,WeatherDisplay:10.37,2014-09-20 07:48:00,
2014-09-20 02:53:00,72.7,67.9,29.75,SSW,199,11.7,11.7,85,0.00,,SKC,0.00,WeatherDisplay:10.37,2014-09-20 07:53:00,
2014-09-20 02:58:00,72.7,67.9,29.75,WSW,240,10.6,10.6,85,0.00,,SKC,0.00,WeatherDisplay:10.37,2014-09-20 07:58:00,
2014-09-20 03:03:00,72.7,67.9,29.75,SSW,198,9.2,9.2,85,0.00,,SKC,0.00,WeatherDisplay:10.37,2014-09-20 08:03:00,
2014-09-20 03:08:00,72.7,67.9,29.75,South,188,10.4,10.4,85,0.00,,SKC,0.00,WeatherDisplay:10.37,2014-09-20 08:08:00,
2014-09-20 03:13:00,72.8,68.0,29.75,SE,137,9.5,9.5,85,0.00,,SKC,0.00,WeatherDisplay:10.37,2014-09-20 08:13:00,
2014-09-20 03:18:00,72.7,67.9,29.75,South,183,10.6,10.6,85,0.00,,SKC,0.00,WeatherDisplay:10.37,2014-09-20 08:18:00,
2014-09-20 03:23:00,72.6,67.8,29.75,South,182,11.7,11.7,85,0.00,,SKC,0.00,WeatherDisplay:10.37,2014-09-20 08:23:00,
2014-09-20 03:28:00,72.7,67.6,29.75,South,181,5.8,5.8,84,0.00,,SKC,0.00,WeatherDisplay:10.37,2014-09-20 08:28:00,
2014-09-20 03:33:00,72.6,67.5,29.74,SSE,152,7.4,7.4,84,0.00,,SKC,0.00,WeatherDisplay:10.37,2014-09-20 08:33:00,
2014-09-20 03:38:00,72.5,67.4,29.74,WSW,252,10.6,10.6,84,0.00,,SKC,0.00,WeatherDisplay:10.37,2014-09-20 08:38:00,
2014-09-20 03:43:00,72.5,67.4,29.75,South,179,5.8,5.8,84,0.00,,SKC,0.00,WeatherDisplay:10.37,2014-09-20 08:43:00,
2014-09-20 03:48:00,72.4,67.3,29.74,SSW,200,9.2,9.2,84,0.00,,SKC,0.00,WeatherDisplay:10.37,2014-09-20 08:48:00,
2014-09-20 03:53:00,72.4,67.3,29.74,SSE,167,6.4,6.4,84,0.00,,SKC,0.00,WeatherDisplay:10.37,2014-09-20 08:53:00,
2014-09-20 03:58:00,72.5,67.4,29.74,South,182,9.2,9.2,84,0.00,,SKC,0.00,WeatherDisplay:10.37,2014-09-20 08:58:00,
2014-09-20 04:03:00,72.6,67.1,29.74,NW,307,12.7,12.7,83,0.00,,SKC,0.00,WeatherDisplay:10.37,2014-09-20 09:03:00,
2014-09-20 04:08:00,72.7,67.2,29.74,SW,234,10.6,10.6,83,0.00,,SKC,0.00,WeatherDisplay:10.37,2014-09-20 09:08:00,
2014-09-20 04:13:00,72.7,67.2,29.74,SSW,209,7.4,7.4,83,0.00,,SKC,0.00,WeatherDisplay:10.37,2014-09-20 09:13:00,
2014-09-20 04:18:00,72.8,67.0,29.74,SSW,209,7.4,7.4,82,0.00,,SKC,0.00,WeatherDisplay:10.37,2014-09-20 09:18:00,
2014-09-20 04:23:00,72.9,67.1,29.74,West,264,16.1,16.1,82,0.00,,SKC,0.00,WeatherDisplay:10.37,2014-09-20 09:23:00,
2014-09-20 04:28:00,73.0,67.2,29.74,SSW,199,9.5,9.5,82,0.00,,SKC,0.00,WeatherDisplay:10.37,2014-09-20 09:28:00,
2014-09-20 04:33:00,73.0,67.2,29.74,WSW,256,9.2,9.2,82,0.00,,SKC,0.00,WeatherDisplay:10.37,2014-09-20 09:33:00,
2014-09-20 04:38:00,73.1,66.9,29.75,WSW,245,9.5,9.5,81,0.00,,SKC,0.00,WeatherDisplay:10.37,2014-09-20 09:38:00,
2014-09-20 04:43:00,73.0,66.8,29.75,SSE,165,12.7,12.7,81,0.00,,SKC,0.00,WeatherDisplay:10.37,2014-09-20 09:43:00,
2014-09-20 04:48:00,72.9,66.7,29.75,West,270,4.6,4.6,81,0.00,,SKC,0.00,WeatherDisplay:10.37,2014-09-20 09:48:00,
2014-09-20 04:53:00,72.9,66.7,29.76,South,186,9.2,9.2,81,0.00,,SKC,0.00,WeatherDisplay:10.37,2014-09-20 09:53:00,
2014-09-20 04:58:00,73.0,66.8,29.78,WNW,294,10.4,10.4,81,0.00,,SKC,0.00,WeatherDisplay:10.37,2014-09-20 09:58:00,
2014-09-20 05:03:00,72.9,67.1,29.81,NW,321,10.4,10.4,82,0.00,,SKC,0.00,WeatherDisplay:10.37,2014-09-20 10:03:00,
2014-09-20 05:08:00,72.7,66.9,29.82,NW,316,12.7,12.7,82,0.00,,SKC,0.00,WeatherDisplay:10.37,2014-09-20 10:08:00,
2014-09-20 05:13:00,72.6,67.1,29.81,NW,304,6.9,6.9,83,0.00,,SKC,0.00,WeatherDisplay:10.37,2014-09-20 10:13:00,
2014-09-20 05:18:00,72.4,66.9,29.80,NW,319,3.2,3.2,83,0.00,,SKC,0.00,WeatherDisplay:10.37,2014-09-20 10:18:00,
2014-09-20 05:23:00,72.2,66.7,29.81,NW,308,8.1,8.1,83,0.00,,SKC,0.00,WeatherDisplay:10.37,2014-09-20 10:23:00,
2014-09-20 05:28:00,72.0,66.9,29.82,NNW,328,4.6,4.6,84,0.00,,SKC,0.00,WeatherDisplay:10.37,2014-09-20 10:28:00,
2014-09-20 05:33:00,72.0,66.9,29.83,NW,320,7.4,7.4,84,0.00,,SKC,0.00,WeatherDisplay:10.37,2014-09-20 10:33:00,
2014-09-20 05:38:00,72.1,67.0,29.83,NW,311,3.5,3.5,84,0.00,,SKC,0.00,WeatherDisplay:10.37,2014-09-20 10:38:00,
2014-09-20 05:43:00,72.1,66.6,29.82,NNW,336,3.5,3.5,83,0.00,,SKC,0.00,WeatherDisplay:10.37,2014-09-20 10:43:00,
2014-09-20 05:48:00,72.1,66.6,29.82,NNW,336,0.0,0.0,83,0.00,,SKC,0.00,WeatherDisplay:10.37,2014-09-20 10:48:00,
2014-09-20 05:53:00,71.9,66.5,29.83,NNW,337,1.2,1.2,83,0.00,,SKC,0.00,WeatherDisplay:10.37,2014-09-20 10:53:00,
2014-09-20 05:58:00,71.5,66.8,29.83,NNE,32,2.3,2.3,85,0.00,,SKC,0.00,WeatherDisplay:10.37,2014-09-20 10:58:00,
2014-09-20 06:03:00,71.3,66.6,29.83,ENE,61,3.2,3.2,85,0.00,,SKC,0.00,WeatherDisplay:10.37,2014-09-20 11:03:00,
2014-09-20 06:08:00,70.8,66.4,29.85,NNW,340,3.5,3.5,86,0.00,,SKC,0.00,WeatherDisplay:10.37,2014-09-20 11:08:00,
2014-09-20 06:13:00,70.8,66.4,29.85,NE,49,4.2,4.2,86,0.00,,SKC,0.00,WeatherDisplay:10.37,2014-09-20 11:13:00,
2014-09-20 06:18:00,70.8,66.4,29.85,ENE,75,1.2,1.2,86,0.00,,SKC,0.00,WeatherDisplay:10.37,2014-09-20 11:18:00,
2014-09-20 06:23:00,70.9,66.5,29.86,NNW,332,6.9,6.9,86,0.00,,SKC,0.00,WeatherDisplay:10.37,2014-09-20 11:23:00,
2014-09-20 06:28:00,71.0,66.6,29.85,NW,313,1.2,1.2,86,0.00,,SKC,0.00,WeatherDisplay:10.37,2014-09-20 11:28:00,
2014-09-20 06:33:00,71.0,66.6,29.86,WNW,293,3.5,3.5,86,0.00,,SKC,0.00,WeatherDisplay:10.37,2014-09-20 11:33:00,
2014-09-20 06:38:00,70.8,66.7,29.86,NW,323,7.4,7.4,87,0.00,,SKC,0.00,WeatherDisplay:10.37,2014-09-20 11:38:00,
2014-09-20 06:43:00,69.5,65.5,29.86,NW,316,19.6,19.6,87,0.02,RA,SKC,0.03,WeatherDisplay:10.37,2014-09-20 11:43:00,
2014-09-20 06:48:00,67.4,63.7,29.83,NW,309,4.2,4.2,88,0.16,RA,SKC,0.16,WeatherDisplay:10.37,2014-09-20 11:48:00,
2014-09-20 06:53:00,67.4,63.1,29.83,West,277,15.0,15.0,86,0.21,RA,SKC,0.21,WeatherDisplay:10.37,2014-09-20 11:53:00,
2014-09-20 06:58:00,68.2,63.5,29.83,West,266,23.3,23.3,85,0.29,RA,SKC,0.31,WeatherDisplay:10.37,2014-09-20 11:58:00,
2014-09-20 07:03:00,66.9,63.9,29.82,WSW,238,8.5,8.5,90,0.40,RA,SKC,0.41,WeatherDisplay:10.37,2014-09-20 12:03:00,
2014-09-20 07:08:00,66.1,63.4,29.80,SSW,207,9.2,9.2,91,0.47,RA,SKC,0.48,WeatherDisplay:10.37,2014-09-20 12:08:00,
2014-09-20 07:13:00,65.9,63.5,29.81,WNW,283,2.3,2.3,92,0.52,RA,SKC,0.52,WeatherDisplay:10.37,2014-09-20 12:13:00,
2014-09-20 07:18:00,65.7,63.3,29.82,WNW,290,6.9,6.9,92,0.53,RA,SKC,0.53,WeatherDisplay:10.37,2014-09-20 12:18:00,
2014-09-20 07:23:00,65.5,63.4,29.80,NNE,15,2.3,2.3,93,0.55,RA,SKC,0.55,WeatherDisplay:10.37,2014-09-20 12:23:00,
2014-09-20 07:28:00,65.8,63.4,29.80,WNW,287,7.4,7.4,92,0.56,RA,SKC,0.56,WeatherDisplay:10.37,2014-09-20 12:28:00,
2014-09-20 07:33:00,66.5,64.1,29.82,SW,221,9.5,9.5,92,0.56,RA,SKC,0.56,WeatherDisplay:10.37,2014-09-20 12:33:00,
2014-09-20 07:38:00,66.9,64.2,29.81,WNW,287,9.5,9.5,91,0.56,,SKC,0.56,WeatherDisplay:10.37,2014-09-20 12:38:00,
2014-09-20 07:43:00,67.5,64.5,29.81,WNW,288,10.6,10.6,90,0.55,RA,SKC,0.58,WeatherDisplay:10.37,2014-09-20 12:43:00,
2014-09-20 07:46:00,67.5,64.5,29.81,NW,322,8.1,8.1,90,0.53,RA,SKC,0.58,WeatherDisplay:10.37,2014-09-20 12:46:00,
2014-09-20 07:51:00,67.2,64.5,29.81,SSW,195,6.9,6.9,91,0.42,RA,SKC,0.59,WeatherDisplay:10.37,2014-09-20 12:51:00,
2014-09-20 07:56:00,66.7,64.3,29.80,SSE,150,5.3,5.3,92,0.37,RA,SKC,0.60,WeatherDisplay:10.37,2014-09-20 12:56:00,
2014-09-20 08:01:00,66.2,64.1,29.80,SE,137,4.2,4.2,93,0.25,RA,SKC,0.63,WeatherDisplay:10.37,2014-09-20 13:01:00,
2014-09-20 08:06:00,65.9,64.1,29.80,SE,129,6.9,6.9,94,0.19,RA,SKC,0.64,WeatherDisplay:10.37,2014-09-20 13:06:00,
2014-09-20 08:07:00,65.9,64.1,29.81,South,171,3.5,3.5,94,0.16,RA,SKC,0.64,WeatherDisplay:10.37,2014-09-20 13:07:00,
2014-09-20 08:12:00,65.9,64.1,29.82,NE,53,4.6,4.6,94,0.14,RA,SKC,0.65,WeatherDisplay:10.37,2014-09-20 13:12:00,
2014-09-20 08:17:00,65.8,64.0,29.84,NE,46,5.8,5.8,94,0.12,RA,SKC,0.65,WeatherDisplay:10.37,2014-09-20 13:17:00,
2014-09-20 08:22:00,65.7,64.2,29.85,ENE,62,5.3,5.3,95,0.14,RA,SKC,0.69,WeatherDisplay:10.37,2014-09-20 13:22:00,
2014-09-20 08:27:00,65.6,64.1,29.86,ENE,64,12.7,12.7,95,0.19,RA,SKC,0.75,WeatherDisplay:10.37,2014-09-20 13:27:00,
2014-09-20 08:32:00,65.5,64.0,29.85,East,86,9.5,9.5,95,0.41,RA,SKC,0.97,WeatherDisplay:10.37,2014-09-20 13:32:00,
2014-09-20 08:37:00,65.6,64.4,29.86,ESE,105,6.9,6.9,96,0.57,RA,SKC,1.14,WeatherDisplay:10.37,2014-09-20 13:37:00,
2014-09-20 08:42:00,65.7,64.5,29.86,East,88,4.6,4.6,96,0.77,RA,SKC,1.36,WeatherDisplay:10.37,2014-09-20 13:42:00,
2014-09-20 08:47:00,65.9,64.7,29.85,ENE,71,9.5,9.5,96,0.84,RA,SKC,1.43,WeatherDisplay:10.37,2014-09-20 13:47:00,
2014-09-20 08:52:00,66.0,64.8,29.85,East,88,6.9,6.9,96,0.88,RA,SKC,1.47,WeatherDisplay:10.37,2014-09-20 13:52:00,
2014-09-20 08:57:00,66.1,65.2,29.85,ESE,104,6.9,6.9,97,0.87,RA,SKC,1.48,WeatherDisplay:10.37,2014-09-20 13:57:00,
2014-09-20 09:02:00,66.4,65.5,29.84,ESE,108,10.6,10.6,97,0.93,RA,SKC,1.57,WeatherDisplay:10.37,2014-09-20 14:02:00,
2014-09-20 09:07:00,66.8,65.9,29.84,ESE,115,6.9,6.9,97,0.95,RA,SKC,1.58,WeatherDisplay:10.37,2014-09-20 14:07:00,
2014-09-20 09:12:00,66.9,65.7,29.84,East,84,4.6,4.6,96,0.95,RA,SKC,1.58,WeatherDisplay:10.37,2014-09-20 14:12:00,
2014-09-20 09:17:00,66.9,65.7,29.84,East,93,4.6,4.6,96,0.93,,SKC,1.59,WeatherDisplay:10.37,2014-09-20 14:17:00,
2014-09-20 09:22:00,66.9,65.7,29.83,ESE,115,5.8,5.8,96,0.89,RA,SKC,1.59,WeatherDisplay:10.37,2014-09-20 14:22:00,
2014-09-20 09:27:00,66.9,65.7,29.83,East,101,5.8,5.8,96,0.85,,SKC,1.59,WeatherDisplay:10.37,2014-09-20 14:27:00,
2014-09-20 09:32:00,66.9,65.7,29.83,East,101,5.3,5.3,96,0.63,,SKC,1.59,WeatherDisplay:10.37,2014-09-20 14:32:00,
2014-09-20 09:37:00,66.9,65.7,29.83,East,88,4.6,4.6,96,0.49,,SKC,1.59,WeatherDisplay:10.37,2014-09-20 14:37:00,
2014-09-20 09:42:00,67.0,65.8,29.84,SE,129,3.5,3.5,96,0.30,,SKC,1.59,WeatherDisplay:10.37,2014-09-20 14:42:00,
2014-09-20 09:47:00,67.0,65.8,29.85,SE,137,1.2,0.0,96,0.18,,SKC,1.59,WeatherDisplay:10.37,2014-09-20 14:47:00,
2014-09-20 09:52:00,67.0,65.8,29.86,SE,137,0.0,0.0,96,0.12,,SKC,1.59,WeatherDisplay:10.37,2014-09-20 14:52:00,
2014-09-20 09:57:00,67.0,66.1,29.88,North,351,2.3,2.3,97,0.19,RA,SKC,1.69,WeatherDisplay:10.37,2014-09-20 14:57:00,
2014-09-20 10:02:00,66.9,65.7,29.86,SE,131,5.8,5.8,96,0.48,RA,SKC,2.07,WeatherDisplay:10.37,2014-09-20 15:02:00,
2014-09-20 10:05:00,66.7,65.5,29.84,ESE,114,5.8,5.8,96,0.59,RA,SKC,2.20,WeatherDisplay:10.37,2014-09-20 15:05:00,
2014-09-20 10:10:00,66.6,65.7,29.85,SE,146,6.9,6.9,97,0.67,RA,SKC,2.25,WeatherDisplay:10.37,2014-09-20 15:10:00,
2014-09-20 10:14:00,66.6,65.7,29.85,SSW,207,3.5,3.5,97,0.68,RA,SKC,2.27,WeatherDisplay:10.37,2014-09-20 15:14:00,
2014-09-20 10:19:00,66.6,65.7,29.85,ESE,113,1.2,1.2,97,0.67,RA,SKC,2.27,WeatherDisplay:10.37,2014-09-20 15:19:00,
2014-09-20 10:24:00,66.6,65.7,29.85,ESE,122,1.2,1.2,97,0.67,,SKC,2.27,WeatherDisplay:10.37,2014-09-20 15:24:00,
2014-09-20 10:29:00,66.7,65.8,29.84,South,191,2.3,2.3,97,0.67,,SKC,2.27,WeatherDisplay:10.37,2014-09-20 15:29:00,
2014-09-20 10:34:00,66.7,65.8,29.85,South,175,2.1,2.1,97,0.67,,SKC,2.27,WeatherDisplay:10.37,2014-09-20 15:34:00,
2014-09-20 10:39:00,66.7,65.8,29.85,SW,225,5.8,5.8,97,0.67,,SKC,2.27,WeatherDisplay:10.37,2014-09-20 15:39:00,
2014-09-20 10:44:00,66.7,65.8,29.85,SW,222,3.5,3.5,97,0.67,,SKC,2.27,WeatherDisplay:10.37,2014-09-20 15:44:00,
2014-09-20 10:49:00,66.7,65.8,29.86,SE,141,3.5,3.5,97,0.67,,SKC,2.27,WeatherDisplay:10.37,2014-09-20 15:49:00,
2014-09-20 10:54:00,66.7,65.8,29.86,South,182,4.2,4.2,97,0.67,,SKC,2.27,WeatherDisplay:10.37,2014-09-20 15:54:00,
2014-09-20 10:59:00,66.7,65.8,29.86,South,172,5.3,5.3,97,0.56,,SKC,2.27,WeatherDisplay:10.37,2014-09-20 15:59:00,
2014-09-20 11:04:00,67.1,66.2,29.86,South,187,7.4,7.4,97,0.13,,SKC,2.27,WeatherDisplay:10.37,2014-09-20 16:04:00,
2014-09-20 11:09:00,67.5,66.6,29.87,SSW,192,5.8,5.8,97,0.01,,SKC,2.27,WeatherDisplay:10.37,2014-09-20 16:09:00,
2014-09-20 11:14:00,67.9,67.0,29.87,SE,133,3.5,3.5,97,0.00,,SKC,2.27,WeatherDisplay:10.37,2014-09-20 16:14:00,
2014-09-20 11:19:00,68.2,67.0,29.87,SSE,153,5.8,5.8,96,0.00,,SKC,2.27,WeatherDisplay:10.37,2014-09-20 16:19:00,
2014-09-20 11:24:00,68.5,67.0,29.87,SSE,153,4.6,4.6,95,0.00,,SKC,2.27,WeatherDisplay:10.37,2014-09-20 16:24:00,
2014-09-20 11:29:00,69.0,67.8,29.87,SSE,167,4.2,4.2,96,0.00,,SKC,2.27,WeatherDisplay:10.37,2014-09-20 16:29:00,
2014-09-20 11:34:00,69.2,67.7,29.86,SSE,150,5.8,5.8,95,0.00,,SKC,2.27,WeatherDisplay:10.37,2014-09-20 16:34:00,
2014-09-20 11:39:00,69.7,68.2,29.86,SSW,196,3.5,3.5,95,0.00,,SKC,2.27,WeatherDisplay:10.37,2014-09-20 16:39:00,
2014-09-20 11:44:00,70.4,68.9,29.86,South,189,3.2,3.2,95,0.00,,SKC,2.27,WeatherDisplay:10.37,2014-09-20 16:44:00,
2014-09-20 11:49:00,70.8,69.0,29.86,SSE,153,5.8,5.8,94,0.00,,SKC,2.27,WeatherDisplay:10.37,2014-09-20 16:49:00,
2014-09-20 11:54:00,71.3,68.9,29.85,SSW,192,7.4,7.4,92,0.00,,SKC,2.27,WeatherDisplay:10.37,2014-09-20 16:54:00,
2014-09-20 11:59:00,71.9,69.4,29.85,SSE,161,8.5,8.5,92,0.00,,SKC,2.27,WeatherDisplay:10.37,2014-09-20 16:59:00,
2014-09-20 12:04:00,71.9,69.1,29.85,SSE,152,7.4,7.4,91,0.00,,SKC,2.27,WeatherDisplay:10.37,2014-09-20 17:04:00,
2014-09-20 12:09:00,72.5,70.0,29.85,SSW,200,3.5,3.5,92,0.00,,SKC,2.27,WeatherDisplay:10.37,2014-09-20 17:09:00,
2014-09-20 12:14:00,73.1,70.3,29.85,SE,136,5.3,5.3,91,0.00,,SKC,2.27,WeatherDisplay:10.37,2014-09-20 17:14:00,
2014-09-20 12:19:00,73.6,70.2,29.84,SE,137,8.5,8.5,89,0.00,,SKC,2.27,WeatherDisplay:10.37,2014-09-20 17:19:00,
2014-09-20 12:24:00,73.9,69.4,29.84,SSW,205,8.5,8.5,86,0.00,,SKC,2.27,WeatherDisplay:10.37,2014-09-20 17:24:00,
2014-09-20 12:29:00,74.5,70.0,29.85,WSW,255,5.8,5.8,86,0.00,,SKC,2.27,WeatherDisplay:10.37,2014-09-20 17:29:00,
2014-09-20 12:34:00,75.1,71.0,29.85,SSW,205,10.6,10.6,87,0.00,,SKC,2.27,WeatherDisplay:10.37,2014-09-20 17:34:00,
2014-09-20 12:39:00,75.4,70.2,29.85,South,188,8.5,8.5,84,0.00,,SKC,2.27,WeatherDisplay:10.37,2014-09-20 17:39:00,
2014-09-20 12:44:00,76.2,71.0,29.85,SSW,192,5.3,5.3,84,0.00,,SKC,2.27,WeatherDisplay:10.37,2014-09-20 17:44:00,
2014-09-20 12:49:00,76.1,70.2,29.85,SW,236,6.9,6.9,82,0.00,,SKC,2.27,WeatherDisplay:10.37,2014-09-20 17:49:00,
2014-09-20 12:54:00,76.7,70.8,29.85,WSW,255,5.3,5.3,82,0.00,,SKC,2.27,WeatherDisplay:10.37,2014-09-20 17:54:00,
2014-09-20 12:59:00,77.1,70.5,29.85,SW,236,7.4,7.4,80,0.00,,SKC,2.27,WeatherDisplay:10.37,2014-09-20 17:59:00,
2014-09-20 13:04:00,77.3,70.6,29.85,SSW,208,6.9,6.9,80,0.00,,SKC,2.27,WeatherDisplay:10.37,2014-09-20 18:04:00,
2014-09-20 13:09:00,77.6,69.8,29.84,South,188,6.9,6.9,77,0.00,,SKC,2.27,WeatherDisplay:10.37,2014-09-20 18:09:00,
2014-09-20 13:14:00,78.1,69.9,29.84,WNW,285,5.8,5.8,76,0.00,,SKC,2.27,WeatherDisplay:10.37,2014-09-20 18:14:00,
2014-09-20 13:19:00,78.4,70.2,29.84,WSW,238,4.6,4.6,76,0.00,,SKC,2.27,WeatherDisplay:10.37,2014-09-20 18:19:00,
2014-09-20 13:24:00,79.1,70.9,29.84,SSW,205,4.6,4.6,76,0.00,,SKC,2.27,WeatherDisplay:10.37,2014-09-20 18:24:00,
2014-09-20 13:29:00,79.6,69.4,29.84,SSW,205,7.4,7.4,71,0.00,,SKC,2.27,WeatherDisplay:10.37,2014-09-20 18:29:00,
2014-09-20 13:34:00,79.6,69.4,29.84,SSW,196,6.9,6.9,71,0.00,,SKC,2.27,WeatherDisplay:10.37,2014-09-20 18:34:00,
2014-09-20 13:39:00,80.1,69.8,29.84,SSW,209,6.9,6.9,71,0.00,,SKC,2.27,WeatherDisplay:10.37,2014-09-20 18:39:00,
2014-09-20 13:44:00,80.2,69.5,29.84,SSW,208,3.5,3.5,70,0.00,,SKC,2.27,WeatherDisplay:10.37,2014-09-20 18:44:00,
2014-09-20 13:49:00,80.9,69.8,29.83,West,279,3.5,3.5,69,0.00,,SKC,2.27,WeatherDisplay:10.37,2014-09-20 18:49:00,
2014-09-20 13:54:00,81.4,70.7,29.84,West,276,5.8,5.8,70,0.00,,SKC,2.27,WeatherDisplay:10.37,2014-09-20 18:54:00,
2014-09-20 13:59:00,81.9,70.7,29.84,South,173,2.3,2.3,69,0.00,,SKC,2.27,WeatherDisplay:10.37,2014-09-20 18:59:00,
2014-09-20 14:04:00,81.7,69.2,29.84,SW,231,2.3,2.3,66,0.00,,SKC,2.27,WeatherDisplay:10.37,2014-09-20 19:04:00,
2014-09-20 14:09:00,82.1,69.6,29.84,West,269,2.3,2.3,66,0.00,,SKC,2.27,WeatherDisplay:10.37,2014-09-20 19:09:00,
2014-09-20 14:14:00,82.0,69.1,29.84,West,274,5.8,5.8,65,0.00,,SKC,2.27,WeatherDisplay:10.37,2014-09-20 19:14:00,